Latest Weather Observations for Dubbo

IDN60801

Issued at 8:52 pm EST Wednesday 19 September 2018 (issued every 10 minutes, with the page automatically refreshed every 10 minutes)

About weather observations | Map of weather stations | Latest weather observations for NSW | Other Formats
Station Details ID: 065070 Name: DUBBO AIRPORT AWS Lat: -32.22 Lon: 148.58 Height: 284.0 m
Data from the previous 72 hours. | See also: Recent months at Dubbo
Date/Time
EST
Temp
°C
App
Temp
°C
Dew
Point
°C
Rel
Hum
%
Delta-T
°C
Wind Press
QNH
hPa
Press
MSL
hPa
Rain since
9am
mm
Dir  Spd
km/h
Gust
km/h
Spd
kts
Gust
kts
19/08:30pm 12.5 6.6 -5.5 28 6.7 WSW 17 20 9 11 1016.0 1015.7 0.0
19/08:00pm 13.9 8.0 -5.3 26 7.2 WSW 17 24 9 13 1015.5 1015.3 0.0
19/07:30pm 14.2 7.8 -4.5 27 7.2 WSW 20 26 11 14 1015.0 1014.8 0.0
19/07:00pm 14.9 8.9 -3.4 28 7.3 WSW 19 24 10 13 1014.6 1014.4 0.0
19/06:30pm 15.6 9.4 -3.3 27 7.6 WSW 20 28 11 15 1014.3 1014.1 0.0
19/06:00pm 16.3 10.2 -2.7 27 7.8 WSW 20 30 11 16 1013.9 1013.7 0.0
19/05:30pm 18.1 11.3 -1.7 26 8.4 WSW 24 32 13 17 1013.3 1013.1 0.0
19/05:00pm 19.1 12.4 -1.4 25 8.9 WSW 24 33 13 18 1012.8 1012.5 0.0
19/04:30pm 20.3 13.6 -0.9 24 9.4 SW 24 39 13 21 1012.4 1012.1 0.0
19/04:00pm 21.0 14.8 -0.3 24 9.6 WSW 22 35 12 19 1012.1 1011.9 0.0
19/03:30pm 21.4 15.1 -1.2 22 10.0 W 22 30 12 16 1012.1 1011.9 0.0
19/03:00pm 21.6 16.6 -1.0 22 10.1 W 15 24 8 13 1012.3 1012.0 0.0
19/02:30pm 21.5 15.6 -0.5 23 9.9 WNW 20 30 11 16 1012.6 1012.3 0.0
19/02:00pm 21.5 15.7 0.1 24 9.7 W 20 44 11 24 1012.4 1012.1 0.0
19/01:30pm 20.5 14.3 -0.2 25 9.3 WSW 22 33 12 18 1012.9 1012.6 0.0
19/01:00pm 20.0 14.6 1.4 29 8.6 W 19 28 10 15 1013.0 1012.7 0.0
19/12:30pm 19.4 13.9 0.9 29 8.4 WSW 19 28 10 15 1013.2 1013.0 0.0
19/12:00pm 19.0 13.7 2.8 34 7.6 WSW 20 28 11 15 1013.2 1013.0 0.0
19/11:30am 18.8 13.4 1.3 31 8.0 W 19 26 10 14 1013.5 1013.3 0.0
19/11:00am 18.4 12.8 1.4 32 7.7 W 20 30 11 16 1013.4 1013.2 0.0
19/10:30am 18.0 12.2 -1.8 26 8.4 W 19 24 10 13 1013.6 1013.4 0.0
19/10:00am 17.4 12.1 -3.9 23 8.6 WNW 15 20 8 11 1013.6 1013.4 0.0
19/09:30am 17.4 11.4 -3.4 24 8.5 W 19 28 10 15 1013.6 1013.4 0.0
19/09:00am 17.2 10.3 -3.0 25 8.3 NW 24 30 13 16 1013.5 1013.3 0.0
19/08:30am 16.8 10.2 2.0 37 6.7 WNW 26 35 14 19 1013.2 1013.0 0.0
19/08:29am 16.6 10.0 1.9 37 6.7 WNW 26 35 14 19 1013.1 1012.9 0.0
19/08:00am 14.9 11.7 2.8 44 5.5 NW 9 17 5 9 1012.7 1012.4 0.0
19/07:30am 13.2 11.8 3.3 51 4.5 CALM 0 0 0 0 1012.3 1012.0 0.0
19/07:00am 10.8 8.1 3.6 61 3.2 SE 7 9 4 5 1012.3 1012.0 0.0
19/06:30am 12.0 9.1 1.6 49 4.5 WSW 6 7 3 4 1012.0 1011.8 0.0
19/06:00am 10.7 7.2 1.3 52 4.0 SSW 9 11 5 6 1011.5 1011.3 0.0
19/05:30am 11.1 9.2 0.8 49 4.3 CALM 0 2 0 1 1011.0 1010.8 0.0
19/05:00am 11.4 9.5 0.8 48 4.5 CALM 0 0 0 0 1010.9 1010.7 0.0
19/04:30am 10.3 6.2 2.2 57 3.5 ESE 13 17 7 9 1010.2 1010.0 0.0
19/04:00am 8.7 4.6 2.1 63 2.8 ESE 13 15 7 8 1011.0 1010.8 0.0
19/03:30am 8.9 5.1 2.0 62 2.9 E 11 13 6 7 1011.1 1010.9 0.0
19/03:00am 8.4 4.7 2.4 66 2.6 E 11 13 6 7 1011.3 1011.1 0.0
19/02:30am 8.9 5.6 2.7 65 2.7 SE 9 11 5 6 1011.6 1011.4 0.0
19/02:00am 9.0 5.4 2.8 65 2.7 ESE 11 13 6 7 1012.0 1011.8 0.0
19/01:30am 10.0 6.8 3.1 62 3.0 ESE 9 9 5 5 1012.6 1012.3 0.0
19/01:00am 11.4 8.8 3.2 57 3.7 ESE 6 7 3 4 1012.7 1012.4 0.0
19/12:30am 10.6 7.0 3.2 60 3.3 E 11 13 6 7 1012.7 1012.4 0.0
19/12:00am 11.7 8.6 3.5 57 3.7 E 9 11 5 6 1013.0 1012.7 0.0
 
Date/Time
EST
Temp
°C
App
Temp
°C
Dew
Point
°C
Rel
Hum
%
Delta-T
°C
Wind Press
QNH
hPa
Press
MSL
hPa
Rain since
9am
mm
Dir  Spd
km/h
Gust
km/h
Spd
kts
Gust
kts
18/11:30pm 10.5 7.6 2.8 59 3.4 E 7 11 4 6 1013.3 1013.1 0.0
18/11:00pm 11.1 8.2 2.4 55 3.8 E 7 7 4 4 1013.5 1013.3 0.0
18/10:30pm 10.5 7.3 0.8 51 4.1 E 7 9 4 5 1013.7 1013.5 0.0
18/10:00pm 13.9 10.4 1.2 42 5.5 ESE 9 9 5 5 1013.8 1013.6 0.0
18/09:30pm 14.8 12.6 1.0 39 6.0 ESE 2 6 1 3 1014.1 1013.9 0.0
18/09:00pm 15.6 13.0 1.0 37 6.4 ESE 4 7 2 4 1014.1 1013.9 0.0
18/08:30pm 15.5 12.4 0.1 35 6.7 ESE 6 7 3 4 1013.9 1013.7 0.0
18/08:00pm 17.6 14.6 0.7 32 7.5 ENE 6 9 3 5 1013.8 1013.6 0.0
18/07:30pm 18.6 15.6 0.7 30 8.0 NW 6 9 3 5 1013.7 1013.5 0.0
18/07:00pm 19.2 16.0 0.8 29 8.3 NW 7 11 4 6 1013.5 1013.3 0.0
18/06:30pm 20.5 16.9 0.9 27 9.0 NNW 9 13 5 7 1013.3 1013.1 0.0
18/06:00pm 21.9 17.6 1.0 25 9.7 NNW 13 17 7 9 1013.3 1013.1 0.0
18/05:30pm 23.6 17.9 0.7 22 10.7 N 20 30 11 16 1013.1 1012.9 0.0
18/05:00pm 24.4 17.7 1.3 22 11.0 N 26 35 14 19 1013.1 1012.9 0.0
18/04:30pm 24.9 18.4 2.4 23 11.0 N 26 43 14 23 1013.2 1013.0 0.0
18/04:00pm 24.7 17.0 2.2 23 10.9 N 32 44 17 24 1013.3 1013.1 0.0
18/03:30pm 25.1 17.9 3.1 24 10.9 N 30 39 16 21 1013.5 1013.3 0.0
18/03:00pm 24.7 17.5 2.8 24 10.7 N 30 41 16 22 1013.8 1013.6 0.0
18/02:30pm 25.0 18.4 4.2 26 10.5 N 28 37 15 20 1014.4 1014.2 0.0
18/02:15pm 24.8 17.8 4.0 26 10.4 N 30 48 16 26 1014.6 1014.4 0.0
18/02:00pm 24.7 17.7 3.9 26 10.4 N 30 46 16 25 1014.8 1014.6 0.0
18/01:33pm 24.1 17.7 5.0 29 9.7 N 28 46 15 25 1015.2 1015.0 0.0
18/01:30pm 23.5 16.6 4.5 29 9.5 N 30 46 16 25 1015.3 1015.1 0.0
18/01:00pm 23.6 17.2 5.0 30 9.4 N 28 39 15 21 1016.2 1016.0 0.0
18/12:30pm 23.2 16.8 5.2 31 9.1 N 28 46 15 25 1016.8 1016.6 0.0
18/12:00pm 23.3 16.6 5.7 32 9.0 N 30 56 16 30 1017.5 1017.3 0.0
18/11:54am 22.5 15.0 6.3 35 8.4 N 35 56 19 30 1017.5 1017.3 0.0
18/11:30am 22.0 15.9 6.7 37 7.9 N 28 39 15 21 1018.2 1018.0 0.0
18/11:00am 21.9 15.4 6.6 37 7.9 NNE 30 44 16 24 1018.7 1018.5 0.0
18/10:30am 21.2 14.8 7.1 40 7.3 N 30 37 16 20 1019.3 1019.2 0.0
18/10:00am 19.7 12.7 6.8 43 6.6 N 33 43 18 23 1019.8 1019.6 0.0
18/09:30am 19.5 12.1 6.9 44 6.4 N 35 43 19 23 1020.0 1019.8 0.0
18/09:00am 19.1 12.2 7.2 46 6.1 N 33 44 18 24 1020.3 1020.1 0.0
18/08:30am 16.9 11.3 5.5 47 5.6 NNE 24 39 13 21 1020.6 1020.4 0.0
18/08:00am 13.1 9.0 2.1 47 4.8 ENE 13 19 7 10 1020.7 1020.5 0.0
18/07:30am 10.6 6.6 2.9 59 3.4 ESE 13 17 7 9 1020.7 1020.5 0.0
18/07:00am 8.5 4.7 3.8 72 2.1 ESE 13 15 7 8 1020.6 1020.4 0.0
18/06:30am 6.1 2.1 2.9 80 1.3 ESE 13 15 7 8 1020.4 1020.2 0.0
18/06:00am 4.2 0.6 0.5 77 1.4 SE 9 13 5 7 1020.1 1019.9 0.0
18/05:30am 4.9 0.9 0.7 74 1.7 SSE 11 13 6 7 1019.5 1019.4 0.0
18/05:00am 6.2 3.1 1.1 70 2.1 SSE 7 9 4 5 1019.1 1019.0 0.0
18/04:30am 7.2 3.4 1.7 68 2.3 ESE 11 13 6 7 1018.9 1018.7 0.0
18/04:00am 6.5 2.1 0.6 66 2.4 SE 13 15 7 8 1018.7 1018.5 0.0
18/03:30am 7.1 3.1 0.5 63 2.6 SE 11 13 6 7 1018.9 1018.7 0.0
18/03:00am 7.5 3.2 0.9 63 2.7 SE 13 19 7 10 1018.9 1018.7 0.0
18/02:30am 8.1 2.9 0.3 58 3.1 ESE 17 22 9 12 1018.9 1018.7 0.0
18/02:00am 7.7 2.5 0.0 58 3.1 ESE 17 20 9 11 1019.1 1019.0 0.0
18/01:30am 7.1 2.6 -0.6 58 3.0 ESE 13 15 7 8 1019.2 1019.1 0.0
18/01:00am 6.9 2.3 -1.3 56 3.1 ESE 13 15 7 8 1019.7 1019.5 0.0
18/12:30am 6.7 2.3 -2.4 52 3.4 E 11 15 6 8 1019.9 1019.7 0.0
18/12:00am 8.0 2.9 -1.8 50 3.7 ESE 15 17 8 9 1020.0 1019.8 0.0
 
Date/Time
EST
Temp
°C
App
Temp
°C
Dew
Point
°C
Rel
Hum
%
Delta-T
°C
Wind Press
QNH
hPa
Press
MSL
hPa
Rain since
9am
mm
Dir  Spd
km/h
Gust
km/h
Spd
kts
Gust
kts
17/11:30pm 9.3 4.2 -2.3 44 4.5 SE 15 17 8 9 1020.0 1019.8 0.0
17/11:00pm 7.8 2.6 -2.8 47 3.9 SE 15 17 8 9 1020.2 1020.0 0.0
17/10:30pm 8.5 4.8 -4.6 39 4.7 SE 6 11 3 6 1020.4 1020.2 0.0
17/10:00pm 7.9 3.6 -4.8 40 4.5 SSE 9 11 5 6 1020.6 1020.4 0.0
17/09:30pm 8.6 4.2 -5.6 36 5.0 E 9 11 5 6 1020.5 1020.3 0.0
17/09:00pm 9.4 5.1 -4.5 37 5.1 ESE 9 9 5 5 1020.5 1020.3 0.0
17/08:30pm 11.0 5.9 -5.0 32 5.9 SSE 13 13 7 7 1020.3 1020.1 0.0
17/08:00pm 12.1 7.4 -5.4 29 6.4 SSE 11 11 6 6 1020.2 1020.0 0.0
17/07:30pm 12.1 9.4 -6.3 27 6.7 CALM 0 0 0 0 1020.2 1020.0 0.0
17/07:00pm 12.3 8.9 -5.7 28 6.6 WSW 4 6 2 3 1020.1 1019.9 0.0
17/06:30pm 15.1 11.2 -6.4 22 8.0 W 6 7 3 4 1019.9 1019.7 0.0
17/06:00pm 17.3 12.8 -7.2 18 9.2 NNW 9 11 5 6 1019.7 1019.5 0.0
17/05:30pm 19.0 13.6 -8.2 15 10.2 NNW 13 17 7 9 1019.5 1019.4 0.0
17/05:00pm 19.6 14.2 -8.6 14 10.6 N 13 20 7 11 1019.4 1019.3 0.0
17/04:30pm 20.2 15.7 -7.2 15 10.7 NW 9 15 5 8 1019.4 1019.3 0.0
17/04:00pm 20.8 15.6 -6.7 15 10.8 N 13 20 7 11 1019.4 1019.3 0.0
17/03:30pm 20.5 15.6 -7.0 15 10.8 N 11 20 6 11 1019.7 1019.5 0.0
17/03:00pm 20.5 14.8 -7.0 15 10.7 N 15 22 8 12 1019.9 1019.7 0.0
17/02:30pm 20.1 14.0 -7.3 15 10.6 NNE 17 26 9 14 1020.2 1020.0 0.0
17/02:00pm 19.9 14.2 -7.5 15 10.5 NNE 15 26 8 14 1020.7 1020.5 0.0
17/01:30pm 19.7 14.4 -7.6 15 10.5 NNE 13 28 7 15 1020.9 1020.7 0.0
17/01:00pm 19.0 12.9 -7.4 16 10.1 NNE 17 28 9 15 1021.5 1021.3 0.0
17/12:30pm 19.5 13.5 -6.2 17 10.1 N 17 32 9 17 1022.0 1021.9 0.0
17/12:00pm 18.4 12.4 -7.1 17 9.7 NE 17 26 9 14 1022.5 1022.4 0.0
17/11:30am 17.9 12.2 -4.1 22 8.9 E 17 28 9 15 1022.9 1022.8 0.0
17/11:00am 16.7 12.0 -1.9 28 7.8 ENE 13 22 7 12 1023.5 1023.3 0.0
17/10:30am 16.1 10.6 0.3 34 6.9 E 19 26 10 14 1023.9 1023.7 0.0
17/10:00am 15.6 9.1 0.6 36 6.5 ESE 24 35 13 19 1024.0 1023.8 0.0
17/09:30am 14.2 7.9 1.8 43 5.5 ESE 24 35 13 19 1024.5 1024.3 0.0
17/09:00am 12.5 5.8 1.5 47 4.7 ESE 26 33 14 18 1024.7 1024.5 0.0
17/08:30am 11.1 6.8 1.1 50 4.2 SE 13 19 7 10 1024.9 1024.7 0.0
17/08:00am 8.3 3.7 -1.2 51 3.7 SSE 13 17 7 9 1024.6 1024.4 0.0
17/07:30am 6.9 1.0 -2.0 53 3.4 SSE 19 24 10 13 1024.3 1024.1 0.0
17/07:00am 5.0 -1.1 -2.3 59 2.7 S 20 26 11 14 1024.0 1023.8 0.0
17/06:30am 3.4 -2.7 -2.5 65 2.1 S 20 24 11 13 1023.8 1023.6 0.0
17/06:00am 2.7 -3.3 -3.0 66 2.0 SSE 19 20 10 11 1023.7 1023.5 0.0
17/05:30am 2.9 -3.1 -3.2 64 2.1 S 19 20 10 11 1023.5 1023.3 0.0
17/05:00am 3.8 -1.8 -3.2 60 2.4 S 17 20 9 11 1023.0 1022.9 0.0
17/04:30am 3.6 -2.4 -3.0 62 2.3 S 19 20 10 11 1022.6 1022.5 0.0
17/04:00am 3.9 -1.4 -3.4 59 2.5 S 15 19 8 10 1022.7 1022.6 0.0
17/03:30am 3.7 -1.9 -3.3 60 2.5 S 17 19 9 10 1022.6 1022.5 0.0
17/03:00am 3.4 -2.2 -2.7 64 2.2 S 17 19 9 10 1022.6 1022.5 0.0
17/02:30am 1.1 -3.9 -3.9 69 1.7 SE 13 13 7 7 1022.7 1022.6 0.0
17/02:00am 1.8 -2.8 -4.5 63 2.2 SSE 11 13 6 7 1022.8 1022.7 0.0
17/01:30am 4.8 -0.6 -4.2 52 3.1 S 15 19 8 10 1023.0 1022.9 0.0
17/01:00am 5.4 -0.3 -3.9 51 3.3 SSW 17 20 9 11 1023.2 1023.1 0.0
17/12:30am 4.3 -0.7 -4.2 54 2.9 S 13 15 7 8 1023.5 1023.3 0.0
17/12:00am 4.1 -0.5 -4.4 54 2.9 SSE 11 13 6 7 1023.6 1023.4 0.0
 
Date/Time
EST
Temp
°C
App
Temp
°C
Dew
Point
°C
Rel
Hum
%
Delta-T
°C
Wind Press
QNH
hPa
Press
MSL
hPa
Rain since
9am
mm
Dir  Spd
km/h
Gust
km/h
Spd
kts
Gust
kts
16/11:30pm 4.4 -0.3 -5.4 49 3.3 SSE 11 11 6 6 1023.6 1023.4 0.0
16/11:00pm 5.5 0.8 -5.2 46 3.6 S 11 13 6 7 1023.6 1023.4 0.0
16/10:30pm 6.9 1.8 -5.1 42 4.2 SSW 13 15 7 8 1023.5 1023.3 0.0
16/10:00pm 7.4 2.3 -5.3 40 4.4 SW 13 17 7 9 1023.4 1023.2 0.0
16/09:30pm 8.5 2.6 -5.7 36 5.0 SW 17 20 9 11 1023.1 1023.0 0.0
16/09:00pm 9.3 3.0 -5.7 34 5.3 SW 19 26 10 14 1022.6 1022.5 0.0

Other Formats:

Comma delimited format used in spreadsheet applications
http://www.bom.gov.au/fwo/IDN60801/IDN60801.95719.axf

JavaScript Object Notation format (JSON) in row-major order
http://www.bom.gov.au/fwo/IDN60801/IDN60801.95719.json